sensor_id;sensor_type;location;lat;lon;timestamp;temperature;humidity
52889;DHT22;41413;52.770;6.892;2023-04-06T00:00:51;4.60;92.60
52889;DHT22;41413;52.770;6.892;2023-04-06T00:03:18;4.50;92.60
52889;DHT22;41413;52.770;6.892;2023-04-06T00:05:47;4.60;92.80
52889;DHT22;41413;52.770;6.892;2023-04-06T00:08:14;4.50;93.10
52889;DHT22;41413;52.770;6.892;2023-04-06T00:10:41;4.50;93.30
52889;DHT22;41413;52.770;6.892;2023-04-06T00:13:08;4.40;93.70
52889;DHT22;41413;52.770;6.892;2023-04-06T00:15:34;4.40;93.60
52889;DHT22;41413;52.770;6.892;2023-04-06T00:18:02;4.30;93.60
52889;DHT22;41413;52.770;6.892;2023-04-06T00:20:30;4.40;93.80
52889;DHT22;41413;52.770;6.892;2023-04-06T00:22:56;4.30;93.90
52889;DHT22;41413;52.770;6.892;2023-04-06T00:25:23;4.30;93.80
52889;DHT22;41413;52.770;6.892;2023-04-06T00:27:50;4.30;94.00
52889;DHT22;41413;52.770;6.892;2023-04-06T00:30:17;4.30;93.90
52889;DHT22;41413;52.770;6.892;2023-04-06T00:32:43;4.30;94.00
52889;DHT22;41413;52.770;6.892;2023-04-06T00:35:10;4.20;94.50
52889;DHT22;41413;52.770;6.892;2023-04-06T00:37:37;4.10;94.60
52889;DHT22;41413;52.770;6.892;2023-04-06T00:40:04;4.10;94.90
52889;DHT22;41413;52.770;6.892;2023-04-06T00:42:31;4.10;95.20
52889;DHT22;41413;52.770;6.892;2023-04-06T00:44:59;4.00;95.80
52889;DHT22;41413;52.770;6.892;2023-04-06T00:47:26;4.00;95.40
52889;DHT22;41413;52.770;6.892;2023-04-06T00:49:54;4.00;95.30
52889;DHT22;41413;52.770;6.892;2023-04-06T00:52:21;4.00;95.20
52889;DHT22;41413;52.770;6.892;2023-04-06T00:54:49;3.90;95.70
52889;DHT22;41413;52.770;6.892;2023-04-06T00:57:16;4.00;95.50
52889;DHT22;41413;52.770;6.892;2023-04-06T00:59:43;4.00;95.30
52889;DHT22;41413;52.770;6.892;2023-04-06T01:02:10;4.10;95.10
52889;DHT22;41413;52.770;6.892;2023-04-06T01:04:37;4.00;95.30
52889;DHT22;41413;52.770;6.892;2023-04-06T01:07:03;3.90;95.60
52889;DHT22;41413;52.770;6.892;2023-04-06T01:09:30;3.80;96.00
52889;DHT22;41413;52.770;6.892;2023-04-06T01:11:57;3.80;96.20
52889;DHT22;41413;52.770;6.892;2023-04-06T01:14:25;3.70;97.00
52889;DHT22;41413;52.770;6.892;2023-04-06T01:16:52;3.70;96.50
52889;DHT22;41413;52.770;6.892;2023-04-06T01:19:19;3.70;96.70
52889;DHT22;41413;52.770;6.892;2023-04-06T01:21:47;3.70;96.90
52889;DHT22;41413;52.770;6.892;2023-04-06T01:24:15;3.60;96.90
52889;DHT22;41413;52.770;6.892;2023-04-06T01:26:43;3.60;96.80
52889;DHT22;41413;52.770;6.892;2023-04-06T01:29:09;3.60;97.30
52889;DHT22;41413;52.770;6.892;2023-04-06T01:31:36;3.60;97.30
52889;DHT22;41413;52.770;6.892;2023-04-06T01:34:03;3.60;97.00
52889;DHT22;41413;52.770;6.892;2023-04-06T01:36:31;3.60;97.30
52889;DHT22;41413;52.770;6.892;2023-04-06T01:38:58;3.50;97.20
52889;DHT22;41413;52.770;6.892;2023-04-06T01:41:25;3.50;97.40
52889;DHT22;41413;52.770;6.892;2023-04-06T01:43:51;3.40;97.70
52889;DHT22;41413;52.770;6.892;2023-04-06T01:46:21;3.40;97.90
52889;DHT22;41413;52.770;6.892;2023-04-06T01:48:47;3.40;98.10
52889;DHT22;41413;52.770;6.892;2023-04-06T01:51:14;3.40;98.30
52889;DHT22;41413;52.770;6.892;2023-04-06T01:53:41;3.30;98.70
52889;DHT22;41413;52.770;6.892;2023-04-06T01:56:08;3.30;98.40
52889;DHT22;41413;52.770;6.892;2023-04-06T01:58:35;3.40;98.30
52889;DHT22;41413;52.770;6.892;2023-04-06T02:01:01;3.40;98.00
52889;DHT22;41413;52.770;6.892;2023-04-06T02:03:28;3.40;98.20
52889;DHT22;41413;52.770;6.892;2023-04-06T02:05:55;3.30;98.20
52889;DHT22;41413;52.770;6.892;2023-04-06T02:08:21;3.40;98.40
52889;DHT22;41413;52.770;6.892;2023-04-06T02:10:48;3.30;98.80
52889;DHT22;41413;52.770;6.892;2023-04-06T02:13:15;3.30;98.40
52889;DHT22;41413;52.770;6.892;2023-04-06T02:15:41;3.20;98.70
52889;DHT22;41413;52.770;6.892;2023-04-06T02:18:08;3.30;98.70
52889;DHT22;41413;52.770;6.892;2023-04-06T02:20:36;3.20;98.90
52889;DHT22;41413;52.770;6.892;2023-04-06T02:23:03;3.20;98.60
52889;DHT22;41413;52.770;6.892;2023-04-06T02:25:30;3.20;98.90
52889;DHT22;41413;52.770;6.892;2023-04-06T02:27:56;3.30;98.60
52889;DHT22;41413;52.770;6.892;2023-04-06T02:30:23;3.20;98.90
52889;DHT22;41413;52.770;6.892;2023-04-06T02:32:50;3.20;98.80
52889;DHT22;41413;52.770;6.892;2023-04-06T02:35:16;3.30;98.60
52889;DHT22;41413;52.770;6.892;2023-04-06T02:37:43;3.20;99.00
52889;DHT22;41413;52.770;6.892;2023-04-06T02:40:10;3.10;99.20
52889;DHT22;41413;52.770;6.892;2023-04-06T02:42:37;3.00;99.30
52889;DHT22;41413;52.770;6.892;2023-04-06T02:45:04;3.00;99.40
52889;DHT22;41413;52.770;6.892;2023-04-06T02:47:31;3.10;99.00
52889;DHT22;41413;52.770;6.892;2023-04-06T02:49:57;3.00;99.40
52889;DHT22;41413;52.770;6.892;2023-04-06T02:52:24;2.90;99.80
52889;DHT22;41413;52.770;6.892;2023-04-06T02:54:51;2.90;99.80
52889;DHT22;41413;52.770;6.892;2023-04-06T02:57:17;2.80;99.90
52889;DHT22;41413;52.770;6.892;2023-04-06T02:59:44;2.80;99.90
52889;DHT22;41413;52.770;6.892;2023-04-06T03:02:11;2.70;99.90
52889;DHT22;41413;52.770;6.892;2023-04-06T03:04:38;2.80;99.90
52889;DHT22;41413;52.770;6.892;2023-04-06T03:07:04;2.80;99.90
52889;DHT22;41413;52.770;6.892;2023-04-06T03:09:31;2.90;99.90
52889;DHT22;41413;52.770;6.892;2023-04-06T03:11:58;2.80;99.90
52889;DHT22;41413;52.770;6.892;2023-04-06T03:14:24;2.70;99.90
52889;DHT22;41413;52.770;6.892;2023-04-06T03:16:51;2.80;99.90
52889;DHT22;41413;52.770;6.892;2023-04-06T03:19:18;2.70;99.90
52889;DHT22;41413;52.770;6.892;2023-04-06T03:21:44;2.70;99.90
52889;DHT22;41413;52.770;6.892;2023-04-06T03:24:12;2.70;99.90
52889;DHT22;41413;52.770;6.892;2023-04-06T03:26:40;2.60;99.90
52889;DHT22;41413;52.770;6.892;2023-04-06T03:29:06;2.60;99.90
52889;DHT22;41413;52.770;6.892;2023-04-06T03:31:34;2.70;99.90
52889;DHT22;41413;52.770;6.892;2023-04-06T03:34:00;2.70;99.90
52889;DHT22;41413;52.770;6.892;2023-04-06T03:36:27;2.60;99.90
52889;DHT22;41413;52.770;6.892;2023-04-06T03:38:54;2.60;99.90
52889;DHT22;41413;52.770;6.892;2023-04-06T03:41:20;2.50;99.90
52889;DHT22;41413;52.770;6.892;2023-04-06T03:43:47;2.50;99.90
52889;DHT22;41413;52.770;6.892;2023-04-06T03:46:14;2.40;99.90
52889;DHT22;41413;52.770;6.892;2023-04-06T03:48:41;2.40;99.90
52889;DHT22;41413;52.770;6.892;2023-04-06T03:51:07;2.20;99.90
52889;DHT22;41413;52.770;6.892;2023-04-06T03:53:34;2.30;99.90
52889;DHT22;41413;52.770;6.892;2023-04-06T03:56:03;2.30;99.90
52889;DHT22;41413;52.770;6.892;2023-04-06T03:58:30;2.30;99.90
52889;DHT22;41413;52.770;6.892;2023-04-06T04:00:57;2.20;99.90
52889;DHT22;41413;52.770;6.892;2023-04-06T04:03:24;2.30;99.90
52889;DHT22;41413;52.770;6.892;2023-04-06T04:05:54;2.20;99.90
52889;DHT22;41413;52.770;6.892;2023-04-06T04:08:24;2.20;99.90
52889;DHT22;41413;52.770;6.892;2023-04-06T04:10:51;2.10;99.90
52889;DHT22;41413;52.770;6.892;2023-04-06T04:13:18;2.20;99.90
52889;DHT22;41413;52.770;6.892;2023-04-06T04:15:45;2.20;99.90
52889;DHT22;41413;52.770;6.892;2023-04-06T04:18:11;2.20;99.90
52889;DHT22;41413;52.770;6.892;2023-04-06T04:20:38;2.20;99.90
52889;DHT22;41413;52.770;6.892;2023-04-06T04:23:05;2.10;99.90
52889;DHT22;41413;52.770;6.892;2023-04-06T04:25:31;2.10;99.90
52889;DHT22;41413;52.770;6.892;2023-04-06T04:27:58;2.10;99.90
52889;DHT22;41413;52.770;6.892;2023-04-06T04:30:25;2.10;99.90
52889;DHT22;41413;52.770;6.892;2023-04-06T04:32:51;2.10;99.90
52889;DHT22;41413;52.770;6.892;2023-04-06T04:35:18;2.10;99.90
52889;DHT22;41413;52.770;6.892;2023-04-06T04:37:45;2.10;99.90
52889;DHT22;41413;52.770;6.892;2023-04-06T04:40:12;2.10;99.90
52889;DHT22;41413;52.770;6.892;2023-04-06T04:42:38;2.10;99.90
52889;DHT22;41413;52.770;6.892;2023-04-06T04:45:05;2.10;99.90
52889;DHT22;41413;52.770;6.892;2023-04-06T04:47:32;2.10;99.90
52889;DHT22;41413;52.770;6.892;2023-04-06T04:49:59;2.10;99.90
52889;DHT22;41413;52.770;6.892;2023-04-06T04:52:26;2.10;99.90
52889;DHT22;41413;52.770;6.892;2023-04-06T04:54:52;2.10;99.90
52889;DHT22;41413;52.770;6.892;2023-04-06T04:57:19;2.10;99.90
52889;DHT22;41413;52.770;6.892;2023-04-06T04:59:46;2.10;99.90
52889;DHT22;41413;52.770;6.892;2023-04-06T05:02:12;2.00;99.90
52889;DHT22;41413;52.770;6.892;2023-04-06T05:04:39;2.10;99.90
52889;DHT22;41413;52.770;6.892;2023-04-06T05:07:07;2.10;99.90
52889;DHT22;41413;52.770;6.892;2023-04-06T05:09:35;2.70;99.90
52889;DHT22;41413;52.770;6.892;2023-04-06T05:12:01;2.10;99.90
52889;DHT22;41413;52.770;6.892;2023-04-06T05:14:28;2.00;99.90
52889;DHT22;41413;52.770;6.892;2023-04-06T05:16:55;2.00;99.90
52889;DHT22;41413;52.770;6.892;2023-04-06T05:19:22;2.00;99.90
52889;DHT22;41413;52.770;6.892;2023-04-06T05:21:48;2.00;99.90
52889;DHT22;41413;52.770;6.892;2023-04-06T05:24:15;2.00;99.90
52889;DHT22;41413;52.770;6.892;2023-04-06T05:26:42;2.00;99.90
52889;DHT22;41413;52.770;6.892;2023-04-06T05:29:09;2.10;99.90
52889;DHT22;41413;52.770;6.892;2023-04-06T05:31:36;2.10;99.90
52889;DHT22;41413;52.770;6.892;2023-04-06T05:34:03;2.10;99.90
52889;DHT22;41413;52.770;6.892;2023-04-06T05:36:30;2.10;99.90
52889;DHT22;41413;52.770;6.892;2023-04-06T05:38:58;2.10;99.90
52889;DHT22;41413;52.770;6.892;2023-04-06T05:41:25;2.10;99.90
52889;DHT22;41413;52.770;6.892;2023-04-06T05:43:52;2.20;99.90
52889;DHT22;41413;52.770;6.892;2023-04-06T05:46:19;2.20;99.90
52889;DHT22;41413;52.770;6.892;2023-04-06T05:48:46;2.20;99.90
52889;DHT22;41413;52.770;6.892;2023-04-06T05:51:13;2.20;99.90
52889;DHT22;41413;52.770;6.892;2023-04-06T05:53:39;2.40;99.90
52889;DHT22;41413;52.770;6.892;2023-04-06T05:56:07;2.60;99.90
52889;DHT22;41413;52.770;6.892;2023-04-06T05:58:33;2.70;99.90
52889;DHT22;41413;52.770;6.892;2023-04-06T06:01:00;2.90;99.90
52889;DHT22;41413;52.770;6.892;2023-04-06T06:03:27;3.20;99.90
52889;DHT22;41413;52.770;6.892;2023-04-06T06:05:58;3.60;99.90
52889;DHT22;41413;52.770;6.892;2023-04-06T06:08:25;4.00;99.90
52889;DHT22;41413;52.770;6.892;2023-04-06T06:10:52;4.40;99.90
52889;DHT22;41413;52.770;6.892;2023-04-06T06:13:18;4.60;99.90
52889;DHT22;41413;52.770;6.892;2023-04-06T06:15:46;4.80;99.90
52889;DHT22;41413;52.770;6.892;2023-04-06T06:18:12;5.00;99.90
52889;DHT22;41413;52.770;6.892;2023-04-06T06:20:39;5.20;99.90
52889;DHT22;41413;52.770;6.892;2023-04-06T06:23:06;5.20;99.90
52889;DHT22;41413;52.770;6.892;2023-04-06T06:25:33;5.20;99.90
52889;DHT22;41413;52.770;6.892;2023-04-06T06:27:59;5.80;99.90
52889;DHT22;41413;52.770;6.892;2023-04-06T06:30:26;6.00;99.90
52889;DHT22;41413;52.770;6.892;2023-04-06T06:32:53;6.30;99.90
52889;DHT22;41413;52.770;6.892;2023-04-06T06:35:20;6.40;99.90
52889;DHT22;41413;52.770;6.892;2023-04-06T06:37:46;6.60;99.80
52889;DHT22;41413;52.770;6.892;2023-04-06T06:40:13;6.60;99.70
52889;DHT22;41413;52.770;6.892;2023-04-06T06:42:42;6.60;98.70
52889;DHT22;41413;52.770;6.892;2023-04-06T06:45:09;6.70;98.80
52889;DHT22;41413;52.770;6.892;2023-04-06T06:47:36;6.50;99.00
52889;DHT22;41413;52.770;6.892;2023-04-06T06:50:03;6.50;98.80
52889;DHT22;41413;52.770;6.892;2023-04-06T06:52:30;6.40;99.10
52889;DHT22;41413;52.770;6.892;2023-04-06T06:54:56;6.00;99.10
52889;DHT22;41413;52.770;6.892;2023-04-06T06:57:23;5.50;99.80
52889;DHT22;41413;52.770;6.892;2023-04-06T06:59:50;5.40;99.90
52889;DHT22;41413;52.770;6.892;2023-04-06T07:02:16;5.40;99.90
52889;DHT22;41413;52.770;6.892;2023-04-06T07:04:43;5.40;99.90
52889;DHT22;41413;52.770;6.892;2023-04-06T07:07:10;5.60;99.90
52889;DHT22;41413;52.770;6.892;2023-04-06T07:09:36;5.30;99.90
52889;DHT22;41413;52.770;6.892;2023-04-06T07:12:03;5.10;99.90
52889;DHT22;41413;52.770;6.892;2023-04-06T07:14:30;5.10;99.90
52889;DHT22;41413;52.770;6.892;2023-04-06T07:16:58;5.10;99.90
52889;DHT22;41413;52.770;6.892;2023-04-06T07:19:25;5.30;99.90
52889;DHT22;41413;52.770;6.892;2023-04-06T07:21:51;5.40;99.90
52889;DHT22;41413;52.770;6.892;2023-04-06T07:24:18;5.60;99.90
52889;DHT22;41413;52.770;6.892;2023-04-06T07:26:45;5.90;99.90
52889;DHT22;41413;52.770;6.892;2023-04-06T07:29:12;6.00;99.90
52889;DHT22;41413;52.770;6.892;2023-04-06T07:31:39;6.10;99.90
52889;DHT22;41413;52.770;6.892;2023-04-06T07:34:06;6.40;99.90
52889;DHT22;41413;52.770;6.892;2023-04-06T07:36:33;6.70;99.90
52889;DHT22;41413;52.770;6.892;2023-04-06T07:38:59;7.30;99.90
52889;DHT22;41413;52.770;6.892;2023-04-06T07:41:26;7.60;99.90
52889;DHT22;41413;52.770;6.892;2023-04-06T07:43:53;7.90;99.20
52889;DHT22;41413;52.770;6.892;2023-04-06T07:46:19;7.90;98.70
52889;DHT22;41413;52.770;6.892;2023-04-06T07:48:46;7.90;99.00
52889;DHT22;41413;52.770;6.892;2023-04-06T07:51:13;8.30;98.90
52889;DHT22;41413;52.770;6.892;2023-04-06T07:53:41;8.90;98.70
52889;DHT22;41413;52.770;6.892;2023-04-06T07:56:08;9.20;98.50
52889;DHT22;41413;52.770;6.892;2023-04-06T07:58:35;9.00;98.00
52889;DHT22;41413;52.770;6.892;2023-04-06T08:01:02;9.70;98.00
52889;DHT22;41413;52.770;6.892;2023-04-06T08:03:29;10.20;96.70
52889;DHT22;41413;52.770;6.892;2023-04-06T08:05:56;11.10;96.40
52889;DHT22;41413;52.770;6.892;2023-04-06T08:08:23;11.30;95.40
52889;DHT22;41413;52.770;6.892;2023-04-06T08:10:49;11.60;94.50
52889;DHT22;41413;52.770;6.892;2023-04-06T08:13:16;11.70;93.80
52889;DHT22;41413;52.770;6.892;2023-04-06T08:15:43;12.00;93.60
52889;DHT22;41413;52.770;6.892;2023-04-06T08:18:10;12.70;94.00
52889;DHT22;41413;52.770;6.892;2023-04-06T08:20:37;13.10;93.00
52889;DHT22;41413;52.770;6.892;2023-04-06T08:23:04;13.00;92.90
52889;DHT22;41413;52.770;6.892;2023-04-06T08:25:31;13.40;92.50
52889;DHT22;41413;52.770;6.892;2023-04-06T08:27:57;13.50;92.60
52889;DHT22;41413;52.770;6.892;2023-04-06T08:30:24;14.60;92.40
52889;DHT22;41413;52.770;6.892;2023-04-06T08:32:51;15.20;91.30
52889;DHT22;41413;52.770;6.892;2023-04-06T08:35:17;14.70;89.50
52889;DHT22;41413;52.770;6.892;2023-04-06T08:37:44;14.70;90.70
52889;DHT22;41413;52.770;6.892;2023-04-06T08:40:12;14.80;86.40
52889;DHT22;41413;52.770;6.892;2023-04-06T08:42:46;14.70;86.40
52889;DHT22;41413;52.770;6.892;2023-04-06T08:45:16;15.10;86.00
52889;DHT22;41413;52.770;6.892;2023-04-06T08:47:43;14.90;87.70
52889;DHT22;41413;52.770;6.892;2023-04-06T08:50:10;15.80;88.90
52889;DHT22;41413;52.770;6.892;2023-04-06T08:52:38;15.60;84.90
52889;DHT22;41413;52.770;6.892;2023-04-06T08:55:05;16.00;86.90
52889;DHT22;41413;52.770;6.892;2023-04-06T08:57:32;15.10;84.10
52889;DHT22;41413;52.770;6.892;2023-04-06T09:00:01;14.70;84.20
52889;DHT22;41413;52.770;6.892;2023-04-06T09:02:28;15.00;83.70
52889;DHT22;41413;52.770;6.892;2023-04-06T09:04:54;14.70;83.80
52889;DHT22;41413;52.770;6.892;2023-04-06T09:07:21;14.80;84.60
52889;DHT22;41413;52.770;6.892;2023-04-06T09:09:48;14.80;83.40
52889;DHT22;41413;52.770;6.892;2023-04-06T09:12:25;15.10;86.00
52889;DHT22;41413;52.770;6.892;2023-04-06T09:14:53;15.00;84.30
52889;DHT22;41413;52.770;6.892;2023-04-06T09:17:31;15.10;84.90
52889;DHT22;41413;52.770;6.892;2023-04-06T09:20:00;14.70;81.00
52889;DHT22;41413;52.770;6.892;2023-04-06T09:22:39;15.50;84.40
52889;DHT22;41413;52.770;6.892;2023-04-06T09:25:07;15.40;83.60
52889;DHT22;41413;52.770;6.892;2023-04-06T09:27:36;15.10;83.30
52889;DHT22;41413;52.770;6.892;2023-04-06T09:30:12;15.20;82.40
52889;DHT22;41413;52.770;6.892;2023-04-06T09:32:59;15.80;80.30
52889;DHT22;41413;52.770;6.892;2023-04-06T09:35:26;16.60;80.20
52889;DHT22;41413;52.770;6.892;2023-04-06T09:37:54;16.30;79.00
52889;DHT22;41413;52.770;6.892;2023-04-06T09:40:21;15.80;79.50
52889;DHT22;41413;52.770;6.892;2023-04-06T09:42:51;16.00;78.40
52889;DHT22;41413;52.770;6.892;2023-04-06T09:45:24;15.00;78.30
52889;DHT22;41413;52.770;6.892;2023-04-06T09:47:52;14.00;80.00
52889;DHT22;41413;52.770;6.892;2023-04-06T09:50:21;14.20;81.10
52889;DHT22;41413;52.770;6.892;2023-04-06T09:52:50;13.90;81.20
52889;DHT22;41413;52.770;6.892;2023-04-06T09:55:32;14.00;81.00
52889;DHT22;41413;52.770;6.892;2023-04-06T09:58:05;13.80;80.90
52889;DHT22;41413;52.770;6.892;2023-04-06T10:00:59;13.60;80.00
52889;DHT22;41413;52.770;6.892;2023-04-06T10:03:45;13.20;79.50
52889;DHT22;41413;52.770;6.892;2023-04-06T10:06:18;12.90;80.80
52889;DHT22;41413;52.770;6.892;2023-04-06T10:08:50;12.60;82.20
52889;DHT22;41413;52.770;6.892;2023-04-06T10:11:18;12.70;81.50
52889;DHT22;41413;52.770;6.892;2023-04-06T10:13:47;12.70;82.20
52889;DHT22;41413;52.770;6.892;2023-04-06T10:16:15;12.80;82.50
52889;DHT22;41413;52.770;6.892;2023-04-06T10:18:47;12.50;82.60
52889;DHT22;41413;52.770;6.892;2023-04-06T10:21:22;12.70;81.50
52889;DHT22;41413;52.770;6.892;2023-04-06T10:23:57;12.70;81.00
52889;DHT22;41413;52.770;6.892;2023-04-06T10:26:24;12.80;81.50
52889;DHT22;41413;52.770;6.892;2023-04-06T10:28:51;13.20;81.20
52889;DHT22;41413;52.770;6.892;2023-04-06T10:31:26;13.70;81.60
52889;DHT22;41413;52.770;6.892;2023-04-06T10:33:58;14.20;80.20
52889;DHT22;41413;52.770;6.892;2023-04-06T10:36:28;14.20;79.50
52889;DHT22;41413;52.770;6.892;2023-04-06T10:39:03;14.20;78.20
52889;DHT22;41413;52.770;6.892;2023-04-06T10:41:35;14.10;78.90
52889;DHT22;41413;52.770;6.892;2023-04-06T10:44:02;14.10;79.30
52889;DHT22;41413;52.770;6.892;2023-04-06T10:46:30;14.60;79.70
52889;DHT22;41413;52.770;6.892;2023-04-06T10:48:58;14.70;79.00
52889;DHT22;41413;52.770;6.892;2023-04-06T10:51:27;14.10;79.10
52889;DHT22;41413;52.770;6.892;2023-04-06T10:53:55;14.50;78.80
52889;DHT22;41413;52.770;6.892;2023-04-06T10:56:23;14.40;80.30
52889;DHT22;41413;52.770;6.892;2023-04-06T10:58:52;14.70;79.40
52889;DHT22;41413;52.770;6.892;2023-04-06T11:01:20;15.10;78.70
52889;DHT22;41413;52.770;6.892;2023-04-06T11:03:52;15.00;79.20
52889;DHT22;41413;52.770;6.892;2023-04-06T11:08:47;14.20;77.10
52889;DHT22;41413;52.770;6.892;2023-04-06T11:11:16;14.20;77.00
52889;DHT22;41413;52.770;6.892;2023-04-06T11:13:45;14.50;76.00
52889;DHT22;41413;52.770;6.892;2023-04-06T11:16:16;14.50;76.00
52889;DHT22;41413;52.770;6.892;2023-04-06T11:18:49;14.90;76.80
52889;DHT22;41413;52.770;6.892;2023-04-06T11:21:17;14.70;76.70
52889;DHT22;41413;52.770;6.892;2023-04-06T11:23:44;14.10;76.70
52889;DHT22;41413;52.770;6.892;2023-04-06T11:26:14;13.80;78.30
52889;DHT22;41413;52.770;6.892;2023-04-06T11:28:41;13.80;78.50
52889;DHT22;41413;52.770;6.892;2023-04-06T11:31:10;13.70;77.00
52889;DHT22;41413;52.770;6.892;2023-04-06T11:33:38;13.70;77.40
52889;DHT22;41413;52.770;6.892;2023-04-06T11:36:06;13.70;77.80
52889;DHT22;41413;52.770;6.892;2023-04-06T11:38:33;13.60;78.20
52889;DHT22;41413;52.770;6.892;2023-04-06T11:41:01;13.70;77.10
52889;DHT22;41413;52.770;6.892;2023-04-06T11:43:31;13.60;77.10
52889;DHT22;41413;52.770;6.892;2023-04-06T11:46:03;13.50;76.90
52889;DHT22;41413;52.770;6.892;2023-04-06T11:48:30;13.50;77.40
52889;DHT22;41413;52.770;6.892;2023-04-06T11:50:58;13.40;77.60
52889;DHT22;41413;52.770;6.892;2023-04-06T11:53:28;13.50;77.70
52889;DHT22;41413;52.770;6.892;2023-04-06T11:55:56;13.40;78.60
52889;DHT22;41413;52.770;6.892;2023-04-06T11:58:23;13.50;78.30
52889;DHT22;41413;52.770;6.892;2023-04-06T12:00:50;13.40;76.80
52889;DHT22;41413;52.770;6.892;2023-04-06T12:03:16;13.70;77.50
52889;DHT22;41413;52.770;6.892;2023-04-06T12:05:44;14.00;77.80
52889;DHT22;41413;52.770;6.892;2023-04-06T12:08:10;14.00;77.70
52889;DHT22;41413;52.770;6.892;2023-04-06T12:10:37;13.60;77.60
52889;DHT22;41413;52.770;6.892;2023-04-06T12:13:04;13.60;77.70
52889;DHT22;41413;52.770;6.892;2023-04-06T12:15:31;13.50;76.80
52889;DHT22;41413;52.770;6.892;2023-04-06T12:17:57;13.50;78.10
52889;DHT22;41413;52.770;6.892;2023-04-06T12:20:24;13.70;77.50
52889;DHT22;41413;52.770;6.892;2023-04-06T12:22:53;13.50;77.30
52889;DHT22;41413;52.770;6.892;2023-04-06T12:25:20;13.50;78.00
52889;DHT22;41413;52.770;6.892;2023-04-06T12:27:46;13.60;77.00
52889;DHT22;41413;52.770;6.892;2023-04-06T12:30:14;13.70;77.10
52889;DHT22;41413;52.770;6.892;2023-04-06T12:32:40;13.50;76.20
52889;DHT22;41413;52.770;6.892;2023-04-06T12:35:08;13.80;76.90
52889;DHT22;41413;52.770;6.892;2023-04-06T12:37:35;13.60;76.10
52889;DHT22;41413;52.770;6.892;2023-04-06T12:40:03;13.60;75.90
52889;DHT22;41413;52.770;6.892;2023-04-06T12:42:30;13.50;76.20
52889;DHT22;41413;52.770;6.892;2023-04-06T12:44:57;13.40;76.70
52889;DHT22;41413;52.770;6.892;2023-04-06T12:47:25;13.50;77.30
52889;DHT22;41413;52.770;6.892;2023-04-06T12:49:53;13.60;77.20
52889;DHT22;41413;52.770;6.892;2023-04-06T12:52:20;13.70;76.20
52889;DHT22;41413;52.770;6.892;2023-04-06T12:54:47;13.40;76.30
52889;DHT22;41413;52.770;6.892;2023-04-06T12:57:16;13.50;76.60
52889;DHT22;41413;52.770;6.892;2023-04-06T12:59:43;13.40;76.60
52889;DHT22;41413;52.770;6.892;2023-04-06T13:02:11;13.60;76.70
52889;DHT22;41413;52.770;6.892;2023-04-06T13:04:38;13.60;77.30
52889;DHT22;41413;52.770;6.892;2023-04-06T13:07:05;13.50;76.10
52889;DHT22;41413;52.770;6.892;2023-04-06T13:09:32;13.50;76.20
52889;DHT22;41413;52.770;6.892;2023-04-06T13:11:58;13.50;75.40
52889;DHT22;41413;52.770;6.892;2023-04-06T13:14:25;13.60;76.00
52889;DHT22;41413;52.770;6.892;2023-04-06T13:16:51;13.60;76.40
52889;DHT22;41413;52.770;6.892;2023-04-06T13:19:18;13.60;75.80
52889;DHT22;41413;52.770;6.892;2023-04-06T13:21:45;13.40;76.10
52889;DHT22;41413;52.770;6.892;2023-04-06T13:24:12;13.40;76.40
52889;DHT22;41413;52.770;6.892;2023-04-06T13:26:41;13.40;76.30
52889;DHT22;41413;52.770;6.892;2023-04-06T13:29:08;13.20;76.10
52889;DHT22;41413;52.770;6.892;2023-04-06T13:31:35;13.30;77.60
52889;DHT22;41413;52.770;6.892;2023-04-06T13:34:02;13.40;76.20
52889;DHT22;41413;52.770;6.892;2023-04-06T13:36:28;13.50;77.00
52889;DHT22;41413;52.770;6.892;2023-04-06T13:38:56;13.50;77.80
52889;DHT22;41413;52.770;6.892;2023-04-06T13:41:24;13.40;77.70
52889;DHT22;41413;52.770;6.892;2023-04-06T13:43:52;13.50;78.10
52889;DHT22;41413;52.770;6.892;2023-04-06T13:46:19;13.70;78.50
52889;DHT22;41413;52.770;6.892;2023-04-06T13:48:46;13.70;78.80
52889;DHT22;41413;52.770;6.892;2023-04-06T13:51:14;13.80;79.20
52889;DHT22;41413;52.770;6.892;2023-04-06T13:53:41;13.60;78.90
52889;DHT22;41413;52.770;6.892;2023-04-06T13:56:08;13.70;79.70
52889;DHT22;41413;52.770;6.892;2023-04-06T13:58:35;13.80;79.50
52889;DHT22;41413;52.770;6.892;2023-04-06T14:01:08;13.60;79.30
52889;DHT22;41413;52.770;6.892;2023-04-06T14:03:37;13.60;78.80
52889;DHT22;41413;52.770;6.892;2023-04-06T14:06:13;13.70;79.70
52889;DHT22;41413;52.770;6.892;2023-04-06T14:08:56;13.70;80.80
52889;DHT22;41413;52.770;6.892;2023-04-06T14:11:23;13.70;80.80
52889;DHT22;41413;52.770;6.892;2023-04-06T14:13:50;13.80;80.40
52889;DHT22;41413;52.770;6.892;2023-04-06T14:16:17;13.90;80.10
52889;DHT22;41413;52.770;6.892;2023-04-06T14:18:46;13.70;80.80
52889;DHT22;41413;52.770;6.892;2023-04-06T14:21:12;13.70;82.40
52889;DHT22;41413;52.770;6.892;2023-04-06T14:23:39;13.60;82.80
52889;DHT22;41413;52.770;6.892;2023-04-06T14:26:07;13.40;82.50
52889;DHT22;41413;52.770;6.892;2023-04-06T14:28:35;13.50;83.00
52889;DHT22;41413;52.770;6.892;2023-04-06T14:31:10;13.20;82.40
52889;DHT22;41413;52.770;6.892;2023-04-06T14:33:38;13.20;82.80
52889;DHT22;41413;52.770;6.892;2023-04-06T14:36:06;13.00;82.40
52889;DHT22;41413;52.770;6.892;2023-04-06T14:38:33;13.00;82.20
52889;DHT22;41413;52.770;6.892;2023-04-06T14:41:00;13.10;82.70
52889;DHT22;41413;52.770;6.892;2023-04-06T14:43:27;13.10;82.70
52889;DHT22;41413;52.770;6.892;2023-04-06T14:45:54;13.00;83.20
52889;DHT22;41413;52.770;6.892;2023-04-06T14:48:20;12.90;83.60
52889;DHT22;41413;52.770;6.892;2023-04-06T14:50:54;12.70;83.20
52889;DHT22;41413;52.770;6.892;2023-04-06T14:53:23;12.70;84.20
52889;DHT22;41413;52.770;6.892;2023-04-06T14:55:50;12.60;84.40
52889;DHT22;41413;52.770;6.892;2023-04-06T14:58:22;12.60;84.70
52889;DHT22;41413;52.770;6.892;2023-04-06T15:00:49;12.50;85.40
52889;DHT22;41413;52.770;6.892;2023-04-06T15:03:21;12.50;85.50
52889;DHT22;41413;52.770;6.892;2023-04-06T15:05:48;12.40;85.60
52889;DHT22;41413;52.770;6.892;2023-04-06T15:08:14;12.20;87.30
52889;DHT22;41413;52.770;6.892;2023-04-06T15:10:41;12.00;86.40
52889;DHT22;41413;52.770;6.892;2023-04-06T15:13:08;12.10;86.60
52889;DHT22;41413;52.770;6.892;2023-04-06T15:15:34;12.10;87.00
52889;DHT22;41413;52.770;6.892;2023-04-06T15:18:01;12.10;87.30
52889;DHT22;41413;52.770;6.892;2023-04-06T15:20:29;12.00;87.00
52889;DHT22;41413;52.770;6.892;2023-04-06T15:22:56;12.00;87.20
52889;DHT22;41413;52.770;6.892;2023-04-06T15:25:23;11.80;87.60
52889;DHT22;41413;52.770;6.892;2023-04-06T15:27:50;12.00;88.30
52889;DHT22;41413;52.770;6.892;2023-04-06T15:30:17;12.10;88.40
52889;DHT22;41413;52.770;6.892;2023-04-06T15:32:53;12.00;89.40
52889;DHT22;41413;52.770;6.892;2023-04-06T15:35:21;11.90;89.60
52889;DHT22;41413;52.770;6.892;2023-04-06T15:37:48;11.90;89.40
52889;DHT22;41413;52.770;6.892;2023-04-06T15:40:14;11.80;90.00
52889;DHT22;41413;52.770;6.892;2023-04-06T15:42:42;11.80;90.20